Terminal Aerodrome Forecast
Issued by NWS Cleveland, OH

Home | Current Version | Previous Version | Text Only | Print | Product List | Glossary Off
Versions: 1 2 3 4 5 6 7 8 9 10 11 12 13 14 15 16 17 18 19 20 21 22 23 24 25

405
FTUS41 KCLE 170525
TAFERI
TAF
KERI 170525Z 1706/1806 14005KT P6SM VCSH SCT025 OVC035
     FM170900 12010KT 4SM -RA BR SCT008 OVC015
     FM171300 16014G22KT 4SM -RA BR SCT008 OVC015
     FM172100 25012G20KT 6SM BR OVC008=

USA.gov is the U.S. government's official web portal to all federal, state and local government web resources and services.